createdAt,value
2017-04-16T00:00:26.072Z,8.55
2017-04-16T00:01:25.872Z,9.78
2017-04-16T00:02:25.664Z,9.22
2017-04-16T00:03:25.481Z,10.03
2017-04-16T00:04:25.257Z,9.18
2017-04-16T00:05:25.056Z,9.53
2017-04-16T00:06:25.873Z,8.73
2017-04-16T00:07:25.686Z,9.03
2017-04-16T00:08:25.449Z,8.78
2017-04-16T00:09:25.421Z,8.92
2017-04-16T00:10:25.196Z,8.93
2017-04-16T00:11:24.959Z,8.88
2017-04-16T00:12:24.784Z,8.82
2017-04-16T00:13:24.528Z,9.08
2017-04-16T00:14:24.284Z,8.63
2017-04-16T00:15:24.128Z,7.73
2017-04-16T00:16:23.868Z,8.22
2017-04-16T00:17:23.817Z,7.98
2017-04-16T00:18:24.283Z,8.02
2017-04-16T00:19:24.852Z,8.18
2017-04-16T00:20:25.316Z,6.98
2017-04-16T00:21:26.484Z,7.17
2017-04-16T00:22:26.280Z,7.02
2017-04-16T00:23:26.108Z,7.67
2017-04-16T00:24:25.856Z,6.80
2017-04-16T00:25:25.667Z,6.35
2017-04-16T00:26:26.148Z,7.12
2017-04-16T00:27:26.001Z,7.52
2017-04-16T00:28:25.756Z,7.63
2017-04-16T00:29:25.549Z,6.77
2017-04-16T00:30:25.304Z,7.75
2017-04-16T00:31:25.099Z,6.68
2017-04-16T00:32:24.904Z,6.97
2017-04-16T00:33:25.484Z,6.38
2017-04-16T00:34:25.494Z,6.48
2017-04-16T00:35:25.251Z,7.62
2017-04-16T00:36:25.035Z,7.38
2017-04-16T00:37:24.868Z,6.72
2017-04-16T00:38:24.724Z,7.02
2017-04-16T00:39:24.499Z,6.55
2017-04-16T00:40:24.304Z,5.90
2017-04-16T00:41:24.444Z,6.30
2017-04-16T00:42:24.939Z,5.85
2017-04-16T00:43:24.716Z,6.15
2017-04-16T00:44:24.511Z,5.97
2017-04-16T00:45:24.263Z,6.53
2017-04-16T00:46:24.828Z,5.75
2017-04-16T00:47:24.595Z,5.83
2017-04-16T00:48:24.371Z,5.42
2017-04-16T00:49:24.171Z,5.50
2017-04-16T00:50:23.964Z,5.42
2017-04-16T00:51:23.800Z,5.10
2017-04-16T00:52:23.575Z,6.23
2017-04-16T00:53:23.381Z,6.23
2017-04-16T00:54:23.908Z,5.10
2017-04-16T00:55:24.439Z,5.70
2017-04-16T00:56:24.204Z,6.35
2017-04-16T00:57:24.723Z,6.12
2017-04-16T00:58:24.519Z,5.47
2017-04-16T00:59:24.264Z,5.93
2017-04-16T01:00:28.299Z,5.40
2017-04-16T01:01:33.664Z,6.23
2017-04-16T01:02:39.181Z,5.00
2017-04-16T01:03:38.948Z,5.72
2017-04-16T01:04:38.744Z,5.12
2017-04-16T01:05:38.555Z,5.82
2017-04-16T01:06:38.321Z,5.15
2017-04-16T01:07:38.844Z,5.15
2017-04-16T01:08:39.396Z,5.17
2017-04-16T01:09:39.175Z,5.12
2017-04-16T01:10:38.948Z,5.25
2017-04-16T01:11:38.716Z,5.87
2017-04-16T01:12:38.952Z,5.45
2017-04-16T01:13:38.699Z,5.10
2017-04-16T01:14:38.444Z,6.42
2017-04-16T01:15:38.224Z,5.80
2017-04-16T01:16:38.043Z,5.30
2017-04-16T01:17:37.852Z,5.88
2017-04-16T01:18:37.611Z,6.03
2017-04-16T01:19:37.371Z,6.65
2017-04-16T01:20:37.903Z,6.03
2017-04-16T01:21:38.463Z,5.62
2017-04-16T01:22:38.223Z,6.63
2017-04-16T01:23:38.823Z,6.60
2017-04-16T01:24:38.539Z,6.28
2017-04-16T01:25:39.071Z,5.63
2017-04-16T01:26:38.852Z,6.27
2017-04-16T01:27:38.639Z,6.05
2017-04-16T01:28:38.476Z,6.22
2017-04-16T01:29:38.983Z,5.95
2017-04-16T01:30:38.780Z,5.62
2017-04-16T01:31:38.631Z,6.48
2017-04-16T01:32:39.112Z,6.02
2017-04-16T01:33:39.699Z,7.15
2017-04-16T01:34:39.675Z,6.35
2017-04-16T01:35:39.499Z,6.15
2017-04-16T01:36:39.252Z,6.68
2017-04-16T01:37:39.004Z,6.45
2017-04-16T01:38:38.795Z,6.42
2017-04-16T01:39:38.591Z,6.73
2017-04-16T01:40:38.363Z,6.57
2017-04-16T01:41:38.799Z,7.13
2017-04-16T01:42:38.579Z,6.20
2017-04-16T01:43:38.348Z,7.22
2017-04-16T01:44:38.127Z,6.30
2017-04-16T01:45:37.895Z,7.40
2017-04-16T01:46:37.770Z,7.57
2017-04-16T01:47:37.543Z,7.50
2017-04-16T01:48:37.640Z,7.82
2017-04-16T01:49:37.278Z,7.08
2017-04-16T01:50:37.798Z,6.77
2017-04-16T01:51:38.294Z,6.67
2017-04-16T01:52:38.406Z,6.92
2017-04-16T01:53:38.079Z,7.87
2017-04-16T01:54:37.964Z,6.75
2017-04-16T01:55:38.466Z,6.65
2017-04-16T01:56:38.219Z,7.78
2017-04-16T01:57:37.995Z,8.07
2017-04-16T01:58:37.783Z,7.88
2017-04-16T01:59:37.566Z,8.10
2017-04-16T02:00:37.335Z,7.53
2017-04-16T02:01:37.122Z,7.18
2017-04-16T02:02:36.875Z,7.78
2017-04-16T02:03:36.699Z,8.00
2017-04-16T02:04:36.419Z,8.25
2017-04-16T02:05:36.295Z,9.12
2017-04-16T02:06:36.043Z,8.18
2017-04-16T02:07:36.611Z,8.67
2017-04-16T02:08:36.412Z,8.38
2017-04-16T02:09:36.179Z,8.25
2017-04-16T02:10:35.966Z,7.85
2017-04-16T02:11:36.491Z,7.62
2017-04-16T02:12:36.267Z,7.48
2017-04-16T02:13:36.020Z,8.60
2017-04-16T02:14:35.782Z,8.90
2017-04-16T02:15:35.518Z,8.47
2017-04-16T02:16:35.263Z,8.43
2017-04-16T02:17:35.039Z,8.07
2017-04-16T02:18:34.826Z,8.97
2017-04-16T02:19:34.886Z,8.78
2017-04-16T02:20:34.658Z,7.78
2017-04-16T02:21:34.450Z,8.57
2017-04-16T02:22:34.218Z,8.40
2017-04-16T02:23:34.155Z,8.25
2017-04-16T02:24:33.941Z,8.87
2017-04-16T02:25:33.731Z,8.52
2017-04-16T02:26:33.490Z,7.97
2017-04-16T02:27:33.270Z,9.10
2017-04-16T02:28:33.039Z,8.95
2017-04-16T02:29:33.070Z,8.98
2017-04-16T02:30:32.834Z,9.70
2017-04-16T02:31:32.642Z,9.35
2017-04-16T02:32:32.421Z,9.87
2017-04-16T02:33:32.974Z,9.08
2017-04-16T02:34:32.974Z,8.63
2017-04-16T02:35:32.754Z,8.88
2017-04-16T02:36:32.562Z,8.27
2017-04-16T02:37:32.354Z,8.62
2017-04-16T02:38:32.858Z,8.35
2017-04-16T02:39:33.705Z,9.23
2017-04-16T02:40:33.510Z,8.13
2017-04-16T02:41:33.273Z,9.00
2017-04-16T02:42:33.050Z,8.55
2017-04-16T02:43:32.810Z,7.68
2017-04-16T02:44:33.334Z,9.67
2017-04-16T02:45:33.110Z,9.07
2017-04-16T02:46:32.854Z,9.92
2017-04-16T02:47:32.618Z,8.65
2017-04-16T02:48:32.370Z,9.62
2017-04-16T02:49:32.758Z,7.87
2017-04-16T02:50:32.558Z,9.27
2017-04-16T02:51:32.353Z,9.05
2017-04-16T02:52:32.109Z,9.67
2017-04-16T02:53:31.871Z,8.52
2017-04-16T02:54:31.637Z,8.03
2017-04-16T02:55:31.442Z,8.75
2017-04-16T02:56:31.261Z,8.92
2017-04-16T02:57:31.065Z,9.30
2017-04-16T02:58:30.838Z,7.93
2017-04-16T02:59:30.670Z,8.45
2017-04-16T03:00:30.458Z,9.05
2017-04-16T03:01:31.022Z,8.28
2017-04-16T03:02:30.785Z,8.68
2017-04-16T03:03:31.294Z,8.48
2017-04-16T03:04:31.821Z,8.27
2017-04-16T03:05:32.322Z,9.32
2017-04-16T03:06:32.846Z,8.48
2017-04-16T03:07:32.621Z,9.17
2017-04-16T03:08:32.422Z,9.50
2017-04-16T03:09:32.185Z,9.48
2017-04-16T03:10:31.945Z,8.80
2017-04-16T03:11:31.721Z,10.55
2017-04-16T03:13:37.665Z,8.97
2017-04-16T03:14:37.491Z,9.33
2017-04-16T03:15:37.309Z,9.32
2017-04-16T03:16:37.069Z,9.20
2017-04-16T03:17:36.887Z,9.48
2017-04-16T03:18:36.661Z,8.85
2017-04-16T03:19:36.417Z,9.42
2017-04-16T03:20:36.926Z,10.02
2017-04-16T03:21:36.689Z,9.10
2017-04-16T03:22:36.493Z,8.53
2017-04-16T03:23:36.252Z,10.00
2017-04-16T03:24:36.041Z,9.35
2017-04-16T03:25:36.553Z,9.35
2017-04-16T03:26:37.126Z,10.48
2017-04-16T03:27:36.974Z,9.98
2017-04-16T03:28:37.477Z,9.82
2017-04-16T03:29:37.265Z,9.88
2017-04-16T03:30:37.005Z,10.42
2017-04-16T03:31:36.801Z,9.62
2017-04-16T03:32:36.722Z,11.27
2017-04-16T03:33:36.494Z,10.65
2017-04-16T03:34:36.261Z,10.30
2017-04-16T03:35:36.805Z,11.18
2017-04-16T03:36:36.573Z,11.08
2017-04-16T03:37:36.361Z,11.15
2017-04-16T03:38:36.418Z,11.45
2017-04-16T03:39:36.929Z,11.90
2017-04-16T03:40:36.701Z,11.53
2017-04-16T03:41:36.489Z,11.83
2017-04-16T03:42:36.281Z,10.87
2017-04-16T03:43:36.074Z,11.95
2017-04-16T03:44:36.545Z,11.28
2017-04-16T03:45:36.309Z,11.30
2017-04-16T03:46:36.084Z,11.82
2017-04-16T03:47:35.898Z,12.20
2017-04-16T03:48:35.689Z,12.00
2017-04-16T03:49:36.209Z,11.98
2017-04-16T03:50:35.980Z,11.55
2017-04-16T03:51:35.803Z,12.27
2017-04-16T03:52:35.569Z,11.90
2017-04-16T03:53:35.381Z,12.50
2017-04-16T03:54:36.241Z,12.27
2017-04-16T03:55:36.009Z,11.05
2017-04-16T03:56:35.812Z,11.33
2017-04-16T03:57:35.585Z,12.67
2017-04-16T03:58:35.397Z,12.18
2017-04-16T03:59:35.185Z,12.13
2017-04-16T04:00:34.977Z,12.67
2017-04-16T04:01:34.749Z,12.33
2017-04-16T04:02:34.521Z,12.57
2017-04-16T04:03:34.349Z,13.23
2017-04-16T04:04:34.929Z,11.80
2017-04-16T04:05:34.697Z,12.87
2017-04-16T04:06:34.576Z,12.35
2017-04-16T04:07:34.365Z,12.97
2017-04-16T04:08:34.916Z,13.12
2017-04-16T04:09:34.712Z,12.62
2017-04-16T04:10:34.472Z,11.15
2017-04-16T04:11:40.880Z,12.13
2017-04-16T04:12:40.644Z,13.25
2017-04-16T04:13:41.150Z,11.97
2017-04-16T04:14:40.936Z,12.55
2017-04-16T04:15:40.682Z,14.25
2017-04-16T04:16:40.481Z,12.42
2017-04-16T04:17:40.277Z,13.30
2017-04-16T04:18:40.053Z,12.20
2017-04-16T04:19:40.172Z,12.67
2017-04-16T04:20:39.836Z,12.23
2017-04-16T04:21:40.073Z,13.18
2017-04-16T04:22:40.176Z,12.37
2017-04-16T04:23:39.852Z,12.05
2017-04-16T04:24:39.998Z,12.80
2017-04-16T04:25:39.788Z,12.93
2017-04-16T04:26:39.536Z,13.02
2017-04-16T04:27:39.337Z,12.30
2017-04-16T04:28:39.105Z,12.77
2017-04-16T04:29:38.905Z,13.48
2017-04-16T04:30:38.704Z,12.08
2017-04-16T04:31:38.505Z,13.13
2017-04-16T04:32:38.301Z,13.58
2017-04-16T04:33:38.068Z,13.63
2017-04-16T04:34:37.973Z,12.67
2017-04-16T04:35:37.720Z,12.37
2017-04-16T04:36:37.552Z,11.95
2017-04-16T04:37:37.388Z,12.08
2017-04-16T04:38:37.156Z,12.65
2017-04-16T04:39:36.936Z,11.82
2017-04-16T04:40:37.440Z,13.12
2017-04-16T04:41:38.004Z,12.15
2017-04-16T04:42:37.796Z,12.72
2017-04-16T04:43:37.588Z,11.70
2017-04-16T04:44:37.380Z,12.45
2017-04-16T04:45:37.909Z,12.77
2017-04-16T04:46:37.748Z,14.80
2017-04-16T04:47:37.504Z,13.40
2017-04-16T04:48:37.285Z,13.27
2017-04-16T04:49:37.849Z,12.37
2017-04-16T04:50:37.624Z,14.02
2017-04-16T04:51:38.164Z,12.05
2017-04-16T04:52:37.960Z,13.88
2017-04-16T04:53:37.756Z,13.23
2017-04-16T04:54:37.560Z,12.55
2017-04-16T04:55:37.361Z,12.00
2017-04-16T04:56:37.232Z,13.93
2017-04-16T04:57:37.024Z,12.78
2017-04-16T04:58:36.776Z,14.20
2017-04-16T04:59:36.556Z,13.95
2017-04-16T05:00:36.348Z,13.65
2017-04-16T05:01:36.148Z,12.83
2017-04-16T05:02:36.665Z,12.72
2017-04-16T05:03:37.184Z,13.80
2017-04-16T05:04:36.976Z,12.40
2017-04-16T05:05:36.744Z,12.25
2017-04-16T05:06:36.523Z,12.28
2017-04-16T05:07:36.333Z,12.43
2017-04-16T05:08:36.104Z,13.82
2017-04-16T05:09:35.900Z,12.80
2017-04-16T05:10:36.434Z,12.50
2017-04-16T05:11:36.948Z,14.90
2017-04-16T05:12:36.755Z,12.57
2017-04-16T05:13:36.537Z,12.50
2017-04-16T05:14:37.064Z,14.70
2017-04-16T05:15:36.844Z,14.05
2017-04-16T05:16:37.364Z,14.97
2017-04-16T05:17:37.168Z,14.45
2017-04-16T05:18:37.828Z,14.43
2017-04-16T05:19:37.583Z,12.38
2017-04-16T05:20:37.384Z,13.67
2017-04-16T05:21:37.168Z,13.50
2017-04-16T05:22:36.972Z,13.72
2017-04-16T05:23:37.636Z,14.12
2017-04-16T05:24:37.620Z,14.57
2017-04-16T05:25:37.392Z,13.30
2017-04-16T05:26:37.168Z,14.75
2017-04-16T05:27:37.009Z,14.37
2017-04-16T05:28:36.768Z,13.05
2017-04-16T05:29:36.543Z,14.65
2017-04-16T05:30:37.055Z,13.90
2017-04-16T05:31:37.592Z,13.32
2017-04-16T05:32:37.380Z,14.43
2017-04-16T05:33:37.897Z,14.00
2017-04-16T05:34:38.414Z,15.62
2017-04-16T05:35:38.963Z,14.60
2017-04-16T05:36:38.764Z,13.23
2017-04-16T05:37:45.331Z,14.73
2017-04-16T05:38:45.144Z,14.73
2017-04-16T05:39:44.919Z,14.87
2017-04-16T05:40:44.671Z,15.13
2017-04-16T05:41:44.435Z,14.38
2017-04-16T05:42:44.199Z,15.95
2017-04-16T05:43:44.740Z,16.07
2017-04-16T05:44:44.519Z,15.60
2017-04-16T05:45:45.023Z,15.45
2017-04-16T05:46:44.800Z,14.63
2017-04-16T05:47:44.559Z,15.98
2017-04-16T05:48:44.404Z,16.63
2017-04-16T05:49:44.172Z,16.10
2017-04-16T05:50:43.927Z,16.57
2017-04-16T05:51:43.684Z,18.17
2017-04-16T05:52:43.455Z,16.23
2017-04-16T05:53:43.220Z,15.82
2017-04-16T05:54:42.997Z,16.10
2017-04-16T05:55:42.980Z,16.97
2017-04-16T05:56:42.759Z,17.80
2017-04-16T05:57:42.575Z,17.17
2017-04-16T05:58:44.527Z,15.72
2017-04-16T05:59:44.275Z,16.88
2017-04-16T06:00:44.043Z,17.98
2017-04-16T06:01:43.827Z,18.40
2017-04-16T06:02:43.584Z,18.60
2017-04-16T06:03:43.363Z,17.87
2017-04-16T06:04:43.174Z,18.02
2017-04-16T06:05:42.943Z,17.35
2017-04-16T06:06:42.879Z,18.12
2017-04-16T06:07:42.691Z,17.85
2017-04-16T06:08:42.459Z,18.60
2017-04-16T06:09:42.239Z,18.65
2017-04-16T06:10:42.043Z,18.05
2017-04-16T06:11:41.815Z,18.05
2017-04-16T06:12:41.603Z,18.88
2017-04-16T06:13:41.383Z,18.70
2017-04-16T06:14:41.167Z,19.82
2017-04-16T06:15:40.915Z,18.05
2017-04-16T06:16:40.687Z,16.97
2017-04-16T06:17:40.447Z,19.40
2017-04-16T06:18:40.208Z,17.90
2017-04-16T06:19:40.311Z,17.45
2017-04-16T06:20:39.943Z,16.87
2017-04-16T06:21:41.687Z,18.48
2017-04-16T06:22:42.223Z,16.92
2017-04-16T06:23:42.721Z,18.58
2017-04-16T06:24:43.215Z,17.85
2017-04-16T06:25:43.312Z,18.40
2017-04-16T06:26:43.107Z,18.68
2017-04-16T06:27:42.972Z,19.02
2017-04-16T06:28:42.755Z,19.50
2017-04-16T06:29:43.275Z,17.58
2017-04-16T06:30:43.802Z,16.37
2017-04-16T06:31:43.595Z,16.75
2017-04-16T06:32:44.108Z,18.67
2017-04-16T06:33:43.878Z,17.63
2017-04-16T06:34:43.671Z,18.15
2017-04-16T06:35:43.471Z,18.68
2017-04-16T06:36:43.267Z,16.85
2017-04-16T06:37:43.015Z,17.10
2017-04-16T06:38:43.844Z,17.08
2017-04-16T06:39:44.347Z,16.83
2017-04-16T06:40:44.111Z,17.25
2017-04-16T06:41:43.916Z,17.12
2017-04-16T06:42:43.699Z,17.12
2017-04-16T06:43:43.462Z,15.43
2017-04-16T06:44:44.003Z,16.75
2017-04-16T06:45:43.751Z,16.30
2017-04-16T06:46:43.522Z,15.48
2017-04-16T06:47:43.678Z,16.27
2017-04-16T06:48:43.451Z,15.72
2017-04-16T06:49:43.763Z,15.65
2017-04-16T06:50:43.842Z,14.68
2017-04-16T06:51:43.610Z,14.65
2017-04-16T06:52:43.383Z,14.65
2017-04-16T06:53:43.183Z,15.32
2017-04-16T06:54:42.944Z,14.12
2017-04-16T06:55:42.702Z,14.52
2017-04-16T06:56:42.541Z,13.72
2017-04-16T06:57:42.318Z,14.88
2017-04-16T06:58:42.091Z,13.88
2017-04-16T06:59:41.851Z,14.00
2017-04-16T07:00:41.670Z,13.87
2017-04-16T07:01:41.402Z,12.88
2017-04-16T07:02:41.462Z,13.13
2017-04-16T07:03:41.923Z,14.38
2017-04-16T07:04:42.010Z,14.28
2017-04-16T07:05:48.563Z,13.65
2017-04-16T07:06:48.339Z,13.23
2017-04-16T07:07:48.235Z,13.78
2017-04-16T07:08:47.991Z,14.37
2017-04-16T07:09:47.743Z,14.45
2017-04-16T07:10:47.511Z,12.90
2017-04-16T07:11:47.290Z,13.72
2017-04-16T07:12:47.047Z,12.40
2017-04-16T07:13:46.839Z,13.07
2017-04-16T07:14:47.355Z,12.98
2017-04-16T07:15:47.842Z,14.20
2017-04-16T07:16:47.614Z,14.60
2017-04-16T07:17:47.371Z,12.65
2017-04-16T07:18:47.907Z,14.17
2017-04-16T07:19:47.631Z,11.32
2017-04-16T07:20:47.402Z,12.48
2017-04-16T07:21:47.914Z,12.23
2017-04-16T07:22:48.394Z,10.82
2017-04-16T07:23:48.200Z,11.30
2017-04-16T07:24:47.966Z,11.15
2017-04-16T07:25:47.730Z,12.17
2017-04-16T07:26:48.234Z,10.85
2017-04-16T07:27:48.858Z,10.67
2017-04-16T07:28:48.704Z,11.50
2017-04-16T07:29:48.445Z,11.57
2017-04-16T07:30:48.226Z,12.13
2017-04-16T07:31:48.006Z,11.58
2017-04-16T07:32:47.819Z,10.78
2017-04-16T07:33:47.614Z,10.52
2017-04-16T07:34:47.419Z,9.42
2017-04-16T07:35:47.186Z,10.47
2017-04-16T07:36:47.702Z,9.60
2017-04-16T07:37:48.227Z,9.42
2017-04-16T07:38:48.734Z,9.68
2017-04-16T07:39:49.269Z,9.48
2017-04-16T07:40:49.738Z,9.52
2017-04-16T07:41:49.502Z,10.05
2017-04-16T07:42:49.254Z,10.38
2017-04-16T07:43:49.013Z,10.20
2017-04-16T07:44:48.802Z,9.27
2017-04-16T07:45:48.554Z,9.20
2017-04-16T07:46:48.353Z,10.42
2017-04-16T07:47:48.106Z,9.00
2017-04-16T07:48:47.842Z,9.55
2017-04-16T07:49:47.582Z,10.85
2017-04-16T07:50:48.089Z,9.95
2017-04-16T07:51:47.861Z,10.00
2017-04-16T07:52:47.605Z,9.40
2017-04-16T07:53:48.090Z,9.28
2017-04-16T07:54:47.842Z,9.18
2017-04-16T07:55:47.650Z,9.65
2017-04-16T07:56:47.406Z,8.88
2017-04-16T07:57:47.167Z,8.73
2017-04-16T07:58:46.934Z,8.13
2017-04-16T07:59:47.170Z,8.82
2017-04-16T08:00:46.905Z,8.13
2017-04-16T08:01:46.706Z,8.73
2017-04-16T08:02:46.474Z,9.68
2017-04-16T08:03:46.406Z,9.52
2017-04-16T08:04:46.166Z,8.82
2017-04-16T08:05:45.930Z,8.65
2017-04-16T08:06:45.686Z,8.38
2017-04-16T08:07:45.598Z,8.80
2017-04-16T08:08:45.362Z,8.08
2017-04-16T08:09:45.837Z,8.12
2017-04-16T08:10:45.618Z,8.57
2017-04-16T08:11:45.370Z,8.48
2017-04-16T08:12:45.881Z,9.08
2017-04-16T08:13:45.826Z,8.92
2017-04-16T08:14:45.578Z,8.43
2017-04-16T08:15:45.305Z,8.63
2017-04-16T08:16:45.061Z,8.62
2017-04-16T08:17:44.801Z,8.88
2017-04-16T08:18:45.290Z,8.20
2017-04-16T08:19:45.045Z,9.03
2017-04-16T08:20:44.809Z,8.35
2017-04-16T08:21:44.593Z,8.42
2017-04-16T08:22:44.365Z,7.48
2017-04-16T08:23:44.106Z,9.22
2017-04-16T08:24:43.865Z,8.78
2017-04-16T08:25:43.613Z,8.40
2017-04-16T08:26:43.369Z,7.88
2017-04-16T08:27:43.101Z,7.93
2017-04-16T08:28:42.854Z,9.45
2017-04-16T08:29:42.617Z,9.28
2017-04-16T08:30:42.741Z,8.40
2017-04-16T08:31:42.356Z,9.07
2017-04-16T08:32:42.090Z,8.02
2017-04-16T08:33:41.894Z,8.77
2017-04-16T08:34:41.637Z,8.78
2017-04-16T08:35:42.125Z,9.40
2017-04-16T08:36:42.245Z,8.93
2017-04-16T08:37:41.865Z,9.60
2017-04-16T08:38:40.845Z,10.03
2017-04-16T08:39:40.613Z,8.40
2017-04-16T08:40:40.345Z,11.40
2017-04-16T08:41:40.125Z,8.63
2017-04-16T08:42:41.034Z,9.45
2017-04-16T08:43:40.989Z,8.43
2017-04-16T08:44:40.777Z,9.43
2017-04-16T08:45:41.311Z,9.17
2017-04-16T08:46:41.605Z,9.63
2017-04-16T08:47:42.137Z,8.87
2017-04-16T08:48:41.921Z,8.77
2017-04-16T08:49:41.684Z,9.40
2017-04-16T08:50:41.468Z,10.33
2017-04-16T08:51:41.245Z,9.82
2017-04-16T08:52:41.046Z,9.07
2017-04-16T08:53:41.514Z,8.45
2017-04-16T08:54:41.305Z,8.52
2017-04-16T08:55:41.082Z,9.07
2017-04-16T08:56:40.845Z,7.85
2017-04-16T08:57:40.613Z,9.52
2017-04-16T08:58:40.361Z,9.18
2017-04-16T08:59:40.109Z,8.42
2017-04-16T09:00:39.905Z,7.90
2017-04-16T09:01:39.645Z,8.12
2017-04-16T09:02:39.395Z,8.97
2017-04-16T09:03:39.168Z,8.53
2017-04-16T09:04:38.937Z,7.65
2017-04-16T09:05:38.670Z,8.98
2017-04-16T09:06:38.428Z,9.48
2017-04-16T09:07:38.169Z,8.52
2017-04-16T09:08:37.937Z,9.00
2017-04-16T09:09:37.705Z,9.05
2017-04-16T09:10:37.444Z,8.55
2017-04-16T09:11:37.209Z,8.65
2017-04-16T09:12:36.969Z,8.07
2017-04-16T09:13:36.728Z,8.65
2017-04-16T09:14:36.501Z,8.68
2017-04-16T09:15:36.301Z,8.62
2017-04-16T09:16:36.076Z,8.33
2017-04-16T09:17:35.853Z,8.95
2017-04-16T09:18:36.784Z,8.00
2017-04-16T09:19:36.552Z,7.55
2017-04-16T09:20:36.329Z,7.62
2017-04-16T09:21:36.080Z,8.73
2017-04-16T09:22:35.942Z,8.63
2017-04-16T09:23:35.733Z,7.00
2017-04-16T09:24:35.529Z,8.50
2017-04-16T09:25:35.293Z,8.85
2017-04-16T09:26:35.109Z,8.43
2017-04-16T09:27:35.620Z,7.93
2017-04-16T09:28:35.537Z,8.35
2017-04-16T09:29:36.036Z,7.85
2017-04-16T09:30:35.832Z,7.13
2017-04-16T09:31:36.308Z,7.35
2017-04-16T09:32:36.155Z,8.35
2017-04-16T09:33:36.345Z,8.08
2017-04-16T09:34:36.188Z,7.90
2017-04-16T09:35:36.684Z,7.65
2017-04-16T09:36:36.480Z,7.83
2017-04-16T09:37:36.276Z,8.25
2017-04-16T09:38:36.885Z,8.27
2017-04-16T09:39:36.648Z,8.57
2017-04-16T09:40:36.432Z,7.58
2017-04-16T09:41:36.952Z,7.78
2017-04-16T09:42:36.765Z,8.02
2017-04-16T09:43:36.520Z,7.60
2017-04-16T09:44:38.781Z,7.10
2017-04-16T09:45:38.717Z,7.15
2017-04-16T09:46:39.280Z,7.00
2017-04-16T09:47:39.045Z,7.58
2017-04-16T09:48:38.848Z,7.30
2017-04-16T09:49:38.617Z,7.70
2017-04-16T09:50:38.372Z,7.45
2017-04-16T09:51:38.134Z,7.10
2017-04-16T09:52:37.884Z,6.45
2017-04-16T09:53:37.657Z,6.08
2017-04-16T09:54:37.405Z,7.57
2017-04-16T09:55:37.168Z,6.60
2017-04-16T09:56:37.012Z,7.03
2017-04-16T09:57:36.752Z,6.88
2017-04-16T09:58:37.273Z,7.35
2017-04-16T09:59:37.036Z,7.90
2017-04-16T10:00:36.892Z,6.82
2017-04-16T10:01:36.656Z,7.08
2017-04-16T10:02:37.188Z,6.48
2017-04-16T10:03:37.664Z,7.58
2017-04-16T10:04:37.431Z,7.28
2017-04-16T10:05:37.204Z,7.38
2017-04-16T10:06:37.736Z,7.13
2017-04-16T10:07:37.524Z,7.17
2017-04-16T10:08:37.308Z,8.25
2017-04-16T10:09:37.124Z,7.27
2017-04-16T10:10:36.939Z,6.17
2017-04-16T10:11:36.711Z,6.45
2017-04-16T10:12:37.012Z,5.88
2017-04-16T10:13:36.773Z,5.85
2017-04-16T10:14:36.632Z,5.52
2017-04-16T10:15:37.264Z,6.00
2017-04-16T10:16:37.756Z,5.90
2017-04-16T10:17:37.596Z,6.10
2017-04-16T10:18:38.092Z,5.53
2017-04-16T10:19:38.567Z,5.93
2017-04-16T10:20:38.476Z,5.33
2017-04-16T10:21:38.244Z,5.62
2017-04-16T10:22:38.039Z,5.87
2017-04-16T10:23:37.836Z,5.70
2017-04-16T10:24:37.620Z,5.75
2017-04-16T10:25:37.389Z,5.68
2017-04-16T10:26:37.264Z,6.52
2017-04-16T10:27:37.176Z,5.43
2017-04-16T10:28:37.836Z,5.53
2017-04-16T10:29:37.928Z,6.40
2017-04-16T10:30:37.772Z,6.90
2017-04-16T10:31:37.547Z,5.75
2017-04-16T10:32:37.312Z,6.20
2017-04-16T10:33:37.271Z,6.65
2017-04-16T10:34:37.364Z,6.05
2017-04-16T10:35:37.144Z,6.80
2017-04-16T10:36:36.992Z,6.80
2017-04-16T10:37:36.764Z,6.00
2017-04-16T10:38:36.556Z,7.92
2017-04-16T10:39:36.379Z,6.82
2017-04-16T10:40:36.192Z,6.93
2017-04-16T10:41:36.023Z,6.90
2017-04-16T10:42:36.647Z,6.12
2017-04-16T10:43:36.423Z,7.05
2017-04-16T10:44:36.592Z,5.98
2017-04-16T10:45:36.340Z,6.08
2017-04-16T10:46:37.211Z,5.75
2017-04-16T10:47:37.008Z,6.57
2017-04-16T10:48:36.803Z,6.27
2017-04-16T10:49:36.580Z,6.50
2017-04-16T10:50:36.383Z,5.82
2017-04-16T10:51:36.371Z,5.95
2017-04-16T10:52:36.124Z,5.82
2017-04-16T10:53:35.900Z,6.30
2017-04-16T10:54:35.664Z,7.07
2017-04-16T10:55:35.455Z,6.18
2017-04-16T10:56:35.963Z,5.78
2017-04-16T10:57:35.800Z,5.90
2017-04-16T10:58:35.567Z,6.33
2017-04-16T10:59:35.386Z,5.55
2017-04-16T11:00:35.267Z,7.27
2017-04-16T11:01:35.083Z,6.87
2017-04-16T11:02:35.295Z,7.20
2017-04-16T11:03:35.452Z,6.40
2017-04-16T11:04:35.539Z,6.63
2017-04-16T11:05:35.503Z,5.25
2017-04-16T11:06:35.364Z,6.25
2017-04-16T11:07:36.132Z,5.87
2017-04-16T11:08:37.803Z,6.42
2017-04-16T11:09:37.859Z,6.75
2017-04-16T11:10:38.359Z,5.97
2017-04-16T11:11:38.127Z,5.92
2017-04-16T11:12:38.655Z,6.43
2017-04-16T11:13:38.435Z,6.78
2017-04-16T11:14:38.236Z,6.47
2017-04-16T11:15:37.992Z,6.97
2017-04-16T11:16:37.732Z,6.53
2017-04-16T11:17:37.519Z,6.43
2017-04-16T11:18:37.299Z,6.22
2017-04-16T11:19:37.064Z,6.68
2017-04-16T11:20:36.835Z,6.78
2017-04-16T11:21:36.623Z,5.70
2017-04-16T11:22:36.387Z,6.63
2017-04-16T11:23:36.717Z,5.23
2017-04-16T11:24:36.522Z,6.13
2017-04-16T11:25:36.344Z,5.37
2017-04-16T11:26:36.155Z,4.93
2017-04-16T11:27:35.924Z,5.83
2017-04-16T11:28:35.723Z,5.03
2017-04-16T11:29:35.535Z,5.63
2017-04-16T11:30:35.807Z,5.87
2017-04-16T11:31:35.615Z,5.42
2017-04-16T11:32:36.120Z,6.13
2017-04-16T11:33:35.943Z,5.87
2017-04-16T11:34:35.915Z,5.52
2017-04-16T11:35:35.710Z,5.22
2017-04-16T11:36:35.483Z,5.55
2017-04-16T11:37:36.060Z,4.43
2017-04-16T11:38:36.163Z,4.68
2017-04-16T11:39:35.935Z,4.67
2017-04-16T11:40:35.694Z,4.93
2017-04-16T11:41:36.135Z,4.82
2017-04-16T11:42:35.875Z,4.62
2017-04-16T11:43:35.627Z,4.77
2017-04-16T11:44:35.382Z,5.00
2017-04-16T11:45:35.126Z,5.38
2017-04-16T11:46:34.862Z,4.97
2017-04-16T11:47:34.631Z,5.65
2017-04-16T11:48:34.412Z,6.23
2017-04-16T11:49:34.179Z,6.63
2017-04-16T11:50:33.963Z,6.67
2017-04-16T11:51:33.698Z,6.07
2017-04-16T11:52:33.462Z,6.70
2017-04-16T11:53:33.234Z,6.47
2017-04-16T11:54:32.978Z,6.60
2017-04-16T11:55:32.770Z,6.58
2017-04-16T11:56:32.518Z,6.67
2017-04-16T11:57:32.274Z,6.15
2017-04-16T11:58:32.403Z,6.55
2017-04-16T11:59:33.318Z,7.60
2017-04-16T12:00:33.291Z,7.10
2017-04-16T12:01:33.051Z,6.57
2017-04-16T12:02:32.958Z,7.23
2017-04-16T12:03:36.131Z,6.12
2017-04-16T12:04:41.338Z,6.65
2017-04-16T12:05:53.354Z,5.72
2017-04-16T12:07:03.994Z,5.82
2017-04-16T12:08:04.087Z,5.42
2017-04-16T12:09:04.253Z,6.80
2017-04-16T12:10:04.018Z,7.20
2017-04-16T12:11:03.755Z,5.80
2017-04-16T12:12:03.486Z,5.45
2017-04-16T12:13:03.282Z,6.07
2017-04-16T12:14:03.050Z,6.23
2017-04-16T12:15:02.890Z,5.20
2017-04-16T12:16:02.710Z,5.42
2017-04-16T12:17:02.532Z,5.93
2017-04-16T12:18:02.352Z,4.90
2017-04-16T12:19:02.146Z,5.75
2017-04-16T12:20:01.963Z,5.50
2017-04-16T12:21:01.747Z,5.92
2017-04-16T12:22:01.535Z,5.48
2017-04-16T12:23:01.327Z,5.12
2017-04-16T12:24:01.094Z,5.20
2017-04-16T12:25:00.882Z,4.40
2017-04-16T12:26:00.690Z,4.73
2017-04-16T12:27:00.466Z,4.45
2017-04-16T12:28:00.266Z,4.53
2017-04-16T12:29:00.038Z,4.60
2017-04-16T12:29:59.795Z,4.90
2017-04-16T12:30:59.550Z,4.85
2017-04-16T12:31:59.295Z,4.92
2017-04-16T12:32:59.071Z,4.50
2017-04-16T12:33:58.822Z,5.00
2017-04-16T12:34:58.619Z,4.32
2017-04-16T12:35:58.410Z,4.45
2017-04-16T12:36:58.190Z,4.47
2017-04-16T12:37:58.003Z,3.80
2017-04-16T12:38:57.782Z,4.07
2017-04-16T12:39:57.542Z,3.72
2017-04-16T12:40:57.358Z,3.90
2017-04-16T12:41:58.098Z,3.62
2017-04-16T12:42:58.614Z,3.45
2017-04-16T12:43:58.414Z,4.23
2017-04-16T12:44:58.931Z,3.30
2017-04-16T12:45:59.450Z,3.30
2017-04-16T12:46:59.230Z,3.32
2017-04-16T12:47:59.010Z,3.73
2017-04-16T12:48:58.819Z,4.03
2017-04-16T12:49:58.594Z,3.43
2017-04-16T12:50:58.618Z,3.63
2017-04-16T12:51:58.402Z,3.17
2017-04-16T12:52:58.224Z,3.83
2017-04-16T12:53:58.014Z,3.42
2017-04-16T12:54:57.790Z,4.07
2017-04-16T12:55:57.582Z,3.82
2017-04-16T12:56:57.374Z,4.27
2017-04-16T12:57:57.158Z,4.20
2017-04-16T12:58:57.098Z,4.75
2017-04-16T12:59:56.865Z,3.65
2017-04-16T13:00:56.925Z,5.03
2017-04-16T13:01:57.403Z,5.07
2017-04-16T13:02:57.930Z,5.05
2017-04-16T13:03:57.697Z,4.95
2017-04-16T13:04:57.462Z,4.28
2017-04-16T13:05:57.237Z,4.45
2017-04-16T13:06:57.005Z,3.82
2017-04-16T13:07:56.766Z,4.80
2017-04-16T13:08:56.538Z,3.75
2017-04-16T13:09:56.326Z,3.98
2017-04-16T13:10:56.805Z,3.97